Time;durP1;ratioP1;P1;durP2;ratioP2;P2;SDS_P1;SDS_P2;PMS_P1;PMS_P2;Temp;Humidity;BMP_temperature;BMP_pressure;BME280_temperature;BME280_humidity;BME280_pressure;Samples;Min_cycle;Max_cycle;Signal;HPM_P1;HPM_P2
2023/09/25 00:00:30;;;;;;;2.83;1.07;;;14.60;99.90;;;;;;6152843;23;20380;-91
2023/09/25 00:02:58;;;;;;;3.70;1.17;;;14.10;99.90;;;;;;6152550;23;20413;-94
2023/09/25 00:05:24;;;;;;;2.77;0.83;;;14.40;99.90;;;;;;6153076;23;20388;-92
2023/09/25 00:07:49;;;;;;;3.07;1.20;;;14.30;99.90;;;;;;6128352;23;20404;-92
2023/09/25 00:10:15;;;;;;;3.47;1.30;;;14.30;99.90;;;;;;6153400;23;20389;-92
2023/09/25 00:12:41;;;;;;;4.13;1.30;;;14.20;99.90;;;;;;6152688;23;20377;-89
2023/09/25 00:15:08;;;;;;;4.25;1.10;;;14.50;99.90;;;;;;6153256;23;20699;-92
2023/09/25 00:17:34;;;;;;;2.88;1.27;;;14.20;99.90;;;;;;6152992;23;20381;-92
2023/09/25 00:20:00;;;;;;;2.90;1.30;;;14.10;99.90;;;;;;6152471;23;20464;-91
2023/09/25 00:22:26;;;;;;;3.67;1.43;;;14.50;99.90;;;;;;6128234;23;20425;-91
2023/09/25 00:24:51;;;;;;;3.10;1.30;;;14.30;99.90;;;;;;6152813;23;20377;-91
2023/09/25 00:27:17;;;;;;;2.60;1.30;;;14.10;99.90;;;;;;6152910;23;20393;-91
2023/09/25 00:29:43;;;;;;;3.13;1.30;;;14.10;99.90;;;;;;6128374;23;20365;-93
2023/09/25 00:32:08;;;;;;;2.95;1.40;;;14.00;99.90;;;;;;6152826;23;20376;-91
2023/09/25 00:34:34;;;;;;;3.77;1.30;;;14.40;99.90;;;;;;6153008;23;20388;-91
2023/09/25 00:36:59;;;;;;;3.30;1.40;;;14.00;99.90;;;;;;6153080;23;20392;-92
2023/09/25 00:39:25;;;;;;;2.80;1.10;;;14.30;99.90;;;;;;6154853;23;20863;-93
2023/09/25 00:41:51;;;;;;;2.77;1.33;;;13.40;99.90;;;;;;6154533;23;20401;-90
2023/09/25 00:44:16;;;;;;;3.85;1.40;;;14.00;99.90;;;;;;6154700;23;20496;-93
2023/09/25 00:46:43;;;;;;;3.87;1.43;;;14.30;99.90;;;;;;6154142;23;20400;-91
2023/09/25 00:49:10;;;;;;;3.45;1.30;;;13.90;99.90;;;;;;6129909;23;20792;-91
2023/09/25 00:51:36;;;;;;;3.77;1.70;;;14.30;99.90;;;;;;6154099;23;20362;-92
2023/09/25 00:54:02;;;;;;;3.25;1.45;;;14.10;99.90;;;;;;6154488;23;20433;-92
2023/09/25 00:56:28;;;;;;;4.72;1.67;;;13.80;99.90;;;;;;6154641;23;20807;-92
2023/09/25 00:58:54;;;;;;;3.10;1.40;;;13.80;99.90;;;;;;6129480;23;20380;-91
2023/09/25 01:01:20;;;;;;;4.05;1.65;;;14.10;99.90;;;;;;6129667;23;20377;-91
2023/09/25 01:03:46;;;;;;;3.33;1.52;;;13.90;99.90;;;;;;6154093;23;20378;-91
2023/09/25 01:06:12;;;;;;;4.63;1.48;;;13.80;99.90;;;;;;6154464;23;20397;-91
2023/09/25 01:08:38;;;;;;;4.07;1.70;;;14.10;99.90;;;;;;6154523;23;20381;-91
2023/09/25 01:11:04;;;;;;;3.90;1.70;;;13.70;99.90;;;;;;6154326;23;20377;-93
2023/09/25 01:13:30;;;;;;;2.67;1.40;;;14.10;99.90;;;;;;6129775;23;20380;-92
2023/09/25 01:15:56;;;;;;;3.50;1.73;;;14.00;99.90;;;;;;6153408;23;20405;-91
2023/09/25 01:18:22;;;;;;;4.27;1.90;;;13.70;99.90;;;;;;6154103;23;20377;-91
2023/09/25 01:20:47;;;;;;;3.78;1.75;;;13.50;99.90;;;;;;6153724;23;20423;-91
2023/09/25 01:23:13;;;;;;;4.90;2.00;;;13.80;99.90;;;;;;6153724;23;20374;-90
2023/09/25 01:25:39;;;;;;;4.00;1.60;;;13.70;99.90;;;;;;6153822;23;20380;-91
2023/09/25 01:28:05;;;;;;;5.25;2.00;;;13.80;99.90;;;;;;6154152;23;20441;-91
2023/09/25 01:30:31;;;;;;;3.15;1.70;;;13.40;99.90;;;;;;6153851;23;20812;-91
2023/09/25 01:32:57;;;;;;;3.85;2.20;;;13.80;99.90;;;;;;6153434;23;20370;-91
2023/09/25 01:35:25;;;;;;;3.67;1.88;;;13.70;99.90;;;;;;6153816;23;20802;-91
2023/09/25 01:37:55;;;;;;;4.72;2.00;;;13.60;99.90;;;;;;6153026;23;20366;-92
2023/09/25 01:40:21;;;;;;;3.47;2.17;;;13.40;99.90;;;;;;6129429;23;20429;-92
2023/09/25 01:42:47;;;;;;;3.92;1.85;;;14.10;99.90;;;;;;6153523;23;20419;-92
2023/09/25 01:45:16;;;;;;;3.55;2.17;;;13.30;99.90;;;;;;6153987;23;20365;-91
2023/09/25 01:47:48;;;;;;;4.93;2.10;;;13.60;99.90;;;;;;6153332;23;20393;-90
2023/09/25 01:50:14;;;;;;;3.60;2.10;;;13.70;99.90;;;;;;6153481;23;20377;-91
2023/09/25 01:52:40;;;;;;;3.58;2.08;;;13.10;99.90;;;;;;6128835;23;20373;-91
2023/09/25 01:55:06;;;;;;;4.47;2.30;;;13.50;99.90;;;;;;6153169;23;20376;-91
2023/09/25 01:57:32;;;;;;;4.20;2.00;;;13.10;99.90;;;;;;6128754;23;20373;-92
2023/09/25 01:59:58;;;;;;;4.43;2.30;;;13.30;99.90;;;;;;6153653;23;20715;-92
2023/09/25 02:02:24;;;;;;;4.80;2.20;;;13.50;99.90;;;;;;6153724;23;20403;-90
2023/09/25 02:04:49;;;;;;;3.30;2.10;;;13.40;99.90;;;;;;6153719;23;20858;-91
2023/09/25 02:07:17;;;;;;;3.85;2.20;;;13.70;99.90;;;;;;6153358;23;21103;-92
2023/09/25 02:09:45;;;;;;;3.67;2.17;;;13.30;99.90;;;;;;6153751;23;20434;-91
2023/09/25 02:12:10;;;;;;;3.65;2.25;;;13.40;99.90;;;;;;6153335;23;20369;-90
2023/09/25 02:14:36;;;;;;;4.43;2.33;;;13.10;99.90;;;;;;6153454;23;20375;-93
2023/09/25 02:17:01;;;;;;;3.70;2.13;;;13.10;99.90;;;;;;6152758;23;20908;-92
2023/09/25 02:19:28;;;;;;;4.33;2.40;;;13.40;99.90;;;;;;6153496;23;20673;-90
2023/09/25 02:21:54;;;;;;;4.45;2.53;;;13.20;99.90;;;;;;6152979;23;20474;-92
2023/09/25 02:24:21;;;;;;;5.10;2.60;;;13.40;99.90;;;;;;6153294;23;20406;-91
2023/09/25 02:26:47;;;;;;;3.50;2.40;;;13.40;99.90;;;;;;6153421;23;20397;-89
2023/09/25 02:29:13;;;;;;;4.37;2.40;;;13.30;99.90;;;;;;6153187;23;20684;-90
2023/09/25 02:31:39;;;;;;;5.07;2.63;;;13.30;99.90;;;;;;6153324;23;20407;-91
2023/09/25 02:34:06;;;;;;;4.30;2.60;;;13.80;99.90;;;;;;6153375;23;20374;-91
2023/09/25 02:36:33;;;;;;;3.53;2.58;;;13.80;99.90;;;;;;6153539;23;20457;-93
2023/09/25 02:38:59;;;;;;;4.53;2.90;;;13.30;99.90;;;;;;6153388;23;20370;-92
2023/09/25 02:41:25;;;;;;;5.53;2.40;;;13.60;99.90;;;;;;6153613;23;20983;-90
2023/09/25 02:43:51;;;;;;;3.97;2.70;;;13.00;99.90;;;;;;6152941;23;20373;-91
2023/09/25 02:46:17;;;;;;;4.38;2.50;;;13.30;99.90;;;;;;6153455;23;20397;-91
2023/09/25 02:48:42;;;;;;;4.07;2.45;;;13.40;99.90;;;;;;6153214;23;20380;-92
2023/09/25 02:51:08;;;;;;;5.13;2.83;;;12.70;99.90;;;;;;6153063;23;20687;-91
2023/09/25 02:53:34;;;;;;;5.30;2.80;;;13.00;99.90;;;;;;6153776;23;20699;-92
2023/09/25 02:55:59;;;;;;;3.20;2.63;;;13.10;99.90;;;;;;6152761;23;20752;-91
2023/09/25 02:58:25;;;;;;;4.70;2.67;;;13.30;99.90;;;;;;6153321;23;20369;-91
2023/09/25 03:00:50;;;;;;;4.07;2.72;;;13.00;99.90;;;;;;6152808;23;20388;-92
2023/09/25 03:03:17;;;;;;;4.40;2.60;;;13.20;99.90;;;;;;6153134;23;20369;-90
2023/09/25 03:05:43;;;;;;;4.15;2.60;;;12.80;99.90;;;;;;6153380;23;20408;-91
2023/09/25 03:08:08;;;;;;;4.80;3.42;;;13.20;99.90;;;;;;6152432;23;20396;-92
2023/09/25 03:10:34;;;;;;;4.80;3.00;;;13.00;99.90;;;;;;6153105;23;20384;-90
2023/09/25 03:13:00;;;;;;;5.20;3.00;;;13.10;99.90;;;;;;6152553;23;20854;-92
2023/09/25 03:15:25;;;;;;;5.18;3.28;;;12.90;99.90;;;;;;6152688;23;20794;-93
2023/09/25 03:17:51;;;;;;;4.70;3.00;;;13.20;99.90;;;;;;6152655;23;20405;-92
2023/09/25 03:20:17;;;;;;;3.92;3.00;;;13.00;99.90;;;;;;6152759;23;20448;-93
2023/09/25 03:22:44;;;;;;;4.57;3.13;;;12.70;99.90;;;;;;6152951;23;20389;-90
2023/09/25 03:25:10;;;;;;;5.97;3.00;;;12.90;99.90;;;;;;6153167;23;21164;-91
2023/09/25 03:27:37;;;;;;;5.03;3.10;;;13.00;99.90;;;;;;6153118;23;20483;-90
2023/09/25 03:30:04;;;;;;;5.28;3.30;;;12.90;99.90;;;;;;6152646;23;20372;-92
2023/09/25 03:32:30;;;;;;;5.38;2.88;;;12.70;99.90;;;;;;6152196;23;20377;-92
2023/09/25 03:34:56;;;;;;;4.57;2.78;;;12.70;99.90;;;;;;6127758;23;20782;-91
2023/09/25 03:37:21;;;;;;;3.80;2.90;;;12.90;99.90;;;;;;6152900;23;20428;-91
2023/09/25 03:39:47;;;;;;;4.03;2.80;;;12.90;99.90;;;;;;6153052;23;20366;-93
2023/09/25 03:42:13;;;;;;;4.53;2.90;;;12.90;99.90;;;;;;6153011;23;20376;-90
2023/09/25 03:44:38;;;;;;;5.20;2.70;;;13.00;99.90;;;;;;6128653;23;20381;-90
2023/09/25 03:47:04;;;;;;;5.25;2.85;;;13.00;99.90;;;;;;6152021;23;20419;-90
2023/09/25 03:49:30;;;;;;;5.20;2.83;;;12.90;99.90;;;;;;6153045;23;20751;-91
2023/09/25 03:51:55;;;;;;;4.40;2.67;;;12.70;99.90;;;;;;6152115;23;20420;-90
2023/09/25 03:54:21;;;;;;;4.60;2.70;;;12.70;99.90;;;;;;6152729;23;20372;-91
2023/09/25 03:56:46;;;;;;;3.38;2.70;;;13.00;99.90;;;;;;6152530;23;20401;-90
2023/09/25 03:59:12;;;;;;;5.47;2.72;;;13.20;99.90;;;;;;6152536;23;20933;-91
2023/09/25 04:01:38;;;;;;;4.20;2.63;;;13.30;99.90;;;;;;6152499;23;20711;-91
2023/09/25 04:04:04;;;;;;;4.43;2.70;;;12.70;99.90;;;;;;6152182;23;20381;-90
2023/09/25 04:06:29;;;;;;;4.30;2.80;;;12.70;99.90;;;;;;6152592;23;20403;-90
2023/09/25 04:08:55;;;;;;;5.23;2.93;;;12.80;99.90;;;;;;6127701;23;20460;-91
2023/09/25 04:11:21;;;;;;;3.50;2.60;;;13.60;99.90;;;;;;6153012;23;20369;-91
2023/09/25 04:13:47;;;;;;;3.93;2.60;;;13.00;99.90;;;;;;6129784;23;20749;-90
2023/09/25 04:16:14;;;;;;;3.37;2.67;;;13.10;99.90;;;;;;6154376;23;20376;-92
2023/09/25 04:18:42;;;;;;;5.33;2.53;;;13.00;99.90;;;;;;6154051;23;20366;-91
2023/09/25 04:21:11;;;;;;;4.32;2.70;;;12.70;99.90;;;;;;6153889;23;20485;-91
2023/09/25 04:23:37;;;;;;;5.47;2.50;;;12.20;99.90;;;;;;6154176;23;20706;-91
2023/09/25 04:26:03;;;;;;;3.67;2.50;;;13.00;99.90;;;;;;6129233;23;20377;-90
2023/09/25 04:28:30;;;;;;;4.85;2.33;;;12.90;99.90;;;;;;6129946;23;20369;-93
2023/09/25 04:30:59;;;;;;;3.83;2.27;;;13.50;99.90;;;;;;6154061;23;20368;-92
2023/09/25 04:33:26;;;;;;;3.50;2.10;;;13.00;99.90;;;;;;6154301;23;20504;-93
2023/09/25 04:35:55;;;;;;;3.95;2.50;;;13.10;99.90;;;;;;6155031;23;20684;-91
2023/09/25 04:38:25;;;;;;;3.45;2.42;;;12.80;99.90;;;;;;6129629;23;20369;-91
2023/09/25 04:40:51;;;;;;;4.90;2.30;;;13.10;99.90;;;;;;6154156;23;20397;-92
2023/09/25 04:43:17;;;;;;;4.95;2.40;;;12.90;99.90;;;;;;6130246;23;20373;-92
2023/09/25 04:45:43;;;;;;;4.53;2.03;;;12.90;99.90;;;;;;6154653;23;20373;-91
2023/09/25 04:48:09;;;;;;;3.80;2.40;;;13.60;99.90;;;;;;6153995;23;20887;-93
2023/09/25 04:50:36;;;;;;;3.57;2.17;;;12.60;99.90;;;;;;6154045;23;20403;-93
2023/09/25 04:53:05;;;;;;;4.35;2.35;;;13.00;99.90;;;;;;6129797;23;20401;-93
2023/09/25 04:55:31;;;;;;;3.10;2.40;;;12.60;99.90;;;;;;6154592;23;20377;-92
2023/09/25 04:57:57;;;;;;;3.80;2.40;;;12.80;99.90;;;;;;6154414;23;20369;-93
2023/09/25 05:00:25;;;;;;;2.95;2.08;;;12.90;99.90;;;;;;6154357;23;20404;-93
2023/09/25 05:02:52;;;;;;;4.03;2.40;;;13.00;99.90;;;;;;6153790;23;20708;-90
2023/09/25 05:05:18;;;;;;;3.63;2.28;;;13.10;99.90;;;;;;6153725;23;20401;-92
2023/09/25 05:07:46;;;;;;;3.63;2.25;;;12.60;99.90;;;;;;6152808;23;20424;-93
2023/09/25 05:10:14;;;;;;;3.50;2.20;;;12.60;99.90;;;;;;6129627;23;20427;-91
2023/09/25 05:12:40;;;;;;;3.90;2.08;;;12.60;99.90;;;;;;6154156;23;20837;-93
2023/09/25 05:15:07;;;;;;;4.55;2.35;;;12.70;99.90;;;;;;6153979;23;20369;-90
2023/09/25 05:17:37;;;;;;;2.97;2.15;;;12.70;99.90;;;;;;6128733;23;20381;-92
2023/09/25 05:20:10;;;;;;;5.03;2.22;;;13.10;99.90;;;;;;6153368;23;20377;-93
2023/09/25 05:22:37;;;;;;;3.40;1.95;;;12.70;99.90;;;;;;6153375;23;20378;-93
2023/09/25 05:25:04;;;;;;;3.92;2.15;;;13.00;99.90;;;;;;6128756;23;20369;-92
2023/09/25 05:27:30;;;;;;;4.40;2.30;;;12.70;99.90;;;;;;6153704;23;20397;-91
2023/09/25 05:29:57;;;;;;;2.93;2.00;;;12.90;99.90;;;;;;6153973;23;20366;-93
2023/09/25 05:32:23;;;;;;;3.13;2.00;;;13.20;99.90;;;;;;6153715;23;20369;-91
2023/09/25 05:34:49;;;;;;;3.38;2.33;;;13.10;99.90;;;;;;6153680;23;20694;-91
2023/09/25 05:37:15;;;;;;;3.55;1.80;;;12.90;99.90;;;;;;6153681;23;20937;-91
2023/09/25 05:39:40;;;;;;;3.55;2.05;;;12.90;99.90;;;;;;6128811;23;20373;-93
2023/09/25 05:42:06;;;;;;;3.00;2.00;;;13.20;99.90;;;;;;6153978;23;20369;-91
2023/09/25 05:44:32;;;;;;;3.70;2.35;;;12.70;99.90;;;;;;6153388;23;20404;-92
2023/09/25 05:46:57;;;;;;;4.00;2.10;;;13.20;99.90;;;;;;6129451;23;20425;-92
2023/09/25 05:49:23;;;;;;;4.85;2.03;;;13.10;99.90;;;;;;6153459;23;20366;-91
2023/09/25 05:51:53;;;;;;;3.33;2.00;;;12.90;99.90;;;;;;6153773;23;20858;-93
2023/09/25 05:54:20;;;;;;;4.47;2.10;;;12.90;99.90;;;;;;6153655;23;20401;-93
2023/09/25 05:56:47;;;;;;;3.95;1.95;;;13.10;99.90;;;;;;6153464;23;20380;-93
2023/09/25 05:59:13;;;;;;;3.70;1.97;;;13.10;99.90;;;;;;6129081;23;20373;-91
2023/09/25 06:01:39;;;;;;;3.47;2.10;;;13.30;99.90;;;;;;6127950;23;20369;-92
2023/09/25 06:04:05;;;;;;;2.53;1.70;;;13.20;99.90;;;;;;6153250;23;20706;-95
2023/09/25 06:06:33;;;;;;;3.92;1.98;;;13.10;99.90;;;;;;6152921;23;20730;-91
2023/09/25 06:08:59;;;;;;;4.35;1.98;;;13.50;99.90;;;;;;6153120;23;20361;-91
2023/09/25 06:11:25;;;;;;;3.90;1.97;;;13.00;99.90;;;;;;6153746;23;20373;-91
2023/09/25 06:13:51;;;;;;;3.22;1.85;;;13.40;99.90;;;;;;6153162;23;20361;-91
2023/09/25 06:16:16;;;;;;;3.80;1.85;;;13.60;99.90;;;;;;6153582;23;20846;-91
2023/09/25 06:18:43;;;;;;;3.93;1.80;;;13.00;99.90;;;;;;6152812;23;20366;-92
2023/09/25 06:21:12;;;;;;;3.50;1.58;;;13.40;99.90;;;;;;6153498;23;20382;-93
2023/09/25 06:23:41;;;;;;;3.03;1.55;;;13.60;99.90;;;;;;6153074;23;20369;-93
2023/09/25 06:26:08;;;;;;;4.35;2.00;;;13.50;99.90;;;;;;6127404;23;20416;-91
2023/09/25 06:28:34;;;;;;;3.05;1.58;;;13.80;99.90;;;;;;6152097;23;20393;-92
2023/09/25 06:31:00;;;;;;;3.38;1.60;;;13.30;99.90;;;;;;6152963;23;20388;-90
2023/09/25 06:33:28;;;;;;;3.08;1.60;;;13.70;99.90;;;;;;6152920;23;20365;-91
2023/09/25 06:35:54;;;;;;;3.97;1.80;;;13.70;99.90;;;;;;6127788;23;20374;-92
2023/09/25 06:38:20;;;;;;;2.67;1.43;;;13.20;99.90;;;;;;6153080;23;21083;-93
2023/09/25 06:40:46;;;;;;;3.67;1.60;;;14.00;99.90;;;;;;6127712;23;20419;-94
2023/09/25 06:43:12;;;;;;;3.63;1.70;;;13.90;99.90;;;;;;6152893;23;20870;-94
2023/09/25 06:45:39;;;;;;;4.28;1.60;;;13.40;99.90;;;;;;6128677;23;20376;-93
2023/09/25 06:48:05;;;;;;;2.85;1.42;;;13.80;99.90;;;;;;6152864;23;20393;-96
2023/09/25 06:50:30;;;;;;;2.58;1.40;;;13.60;99.90;;;;;;6153682;23;20683;-94
2023/09/25 06:52:57;;;;;;;2.93;1.60;;;13.40;99.90;;;;;;6153178;23;20385;-94
2023/09/25 06:55:23;;;;;;;2.43;1.30;;;13.50;99.90;;;;;;6153421;23;20378;-92
2023/09/25 06:57:49;;;;;;;3.03;1.30;;;13.70;99.90;;;;;;6128511;23;20413;-92
2023/09/25 07:00:15;;;;;;;4.00;1.50;;;13.50;99.90;;;;;;6153051;23;20893;-93
2023/09/25 07:02:40;;;;;;;2.78;1.30;;;13.80;99.90;;;;;;6123270;23;20391;-94
2023/09/25 07:05:06;;;;;;;3.03;1.38;;;13.90;99.90;;;;;;6099253;23;20373;-94
2023/09/25 07:07:32;;;;;;;2.28;1.15;;;13.90;99.90;;;;;;6098708;23;20673;-94
2023/09/25 07:09:58;;;;;;;3.20;1.10;;;14.80;99.90;;;;;;6099083;23;20693;-95
2023/09/25 07:12:24;;;;;;;3.27;1.10;;;14.20;99.90;;;;;;6098904;23;20379;-92
2023/09/25 07:14:56;;;;;;;3.00;1.20;;;14.60;99.90;;;;;;6098987;23;20860;-94
2023/09/25 07:17:22;;;;;;;2.27;1.20;;;14.80;99.90;;;;;;6099233;23;20489;-94
2023/09/25 07:19:52;;;;;;;3.83;1.23;;;14.80;99.90;;;;;;6098455;23;20367;-95
2023/09/25 07:22:20;;;;;;;2.55;1.13;;;14.60;99.90;;;;;;6099241;23;20390;-93
2023/09/25 07:24:45;;;;;;;3.93;1.53;;;14.80;99.90;;;;;;6123479;23;20387;-93
2023/09/25 07:27:11;;;;;;;3.08;1.17;;;14.80;99.90;;;;;;6099287;23;20402;-92
2023/09/25 07:29:37;;;;;;;3.75;1.17;;;14.90;99.90;;;;;;6098349;23;20483;-93
2023/09/25 07:32:03;;;;;;;2.53;0.83;;;14.90;99.90;;;;;;6098420;23;20367;-93
2023/09/25 07:34:29;;;;;;;2.85;0.90;;;14.70;99.90;;;;;;6098902;23;20367;-94
2023/09/25 07:36:55;;;;;;;3.13;0.90;;;15.20;99.90;;;;;;6098512;23;20670;-94
2023/09/25 07:39:22;;;;;;;2.25;0.93;;;15.00;99.90;;;;;;6123012;23;20367;-94
2023/09/25 07:41:50;;;;;;;4.10;0.93;;;14.90;99.90;;;;;;6122846;23;20830;-92
2023/09/25 07:44:16;;;;;;;2.87;0.80;;;15.20;99.90;;;;;;6097766;23;20886;-92
2023/09/25 07:46:43;;;;;;;2.58;0.90;;;15.20;99.90;;;;;;6121818;23;20445;-90
2023/09/25 07:49:09;;;;;;;4.10;1.15;;;15.10;99.90;;;;;;6124013;23;20874;-92
2023/09/25 07:51:36;;;;;;;3.15;0.85;;;15.00;99.90;;;;;;6123757;23;20693;-92
2023/09/25 07:54:03;;;;;;;2.70;1.10;;;15.30;99.90;;;;;;6099692;23;20371;-93
2023/09/25 07:56:30;;;;;;;2.73;1.10;;;15.10;99.90;;;;;;6124629;23;20379;-92
2023/09/25 07:58:56;;;;;;;2.45;1.05;;;16.00;99.90;;;;;;6099854;23;20378;-93
2023/09/25 08:01:22;;;;;;;3.25;0.85;;;15.20;99.90;;;;;;6124340;23;20370;-90
2023/09/25 08:03:51;;;;;;;1.88;0.70;;;15.30;99.90;;;;;;6123970;23;20376;-92
2023/09/25 08:06:19;;;;;;;2.55;0.95;;;15.40;99.90;;;;;;6153540;23;20449;-93
2023/09/25 08:08:45;;;;;;;2.20;0.70;;;15.60;99.90;;;;;;6152797;23;20456;-92
2023/09/25 08:11:14;;;;;;;2.70;0.88;;;15.50;99.90;;;;;;6128718;23;20373;-92
2023/09/25 08:13:41;;;;;;;2.80;0.75;;;16.00;99.00;;;;;;6129359;23;20767;-92
2023/09/25 08:16:07;;;;;;;1.95;0.50;;;15.70;99.90;;;;;;6128305;23;20376;-94
2023/09/25 08:18:33;;;;;;;3.57;0.80;;;15.90;99.70;;;;;;6153352;23;20703;-93
2023/09/25 08:20:59;;;;;;;1.83;0.77;;;15.80;99.70;;;;;;6153460;23;20369;-93
2023/09/25 08:23:26;;;;;;;2.55;0.82;;;15.80;98.50;;;;;;6128641;23;20859;-94
2023/09/25 08:25:51;;;;;;;2.00;0.77;;;15.90;96.60;;;;;;6128886;23;20411;-91
2023/09/25 08:28:18;;;;;;;3.58;0.77;;;16.00;97.40;;;;;;6128695;23;20396;-93
2023/09/25 08:30:44;;;;;;;3.25;0.75;;;16.30;96.00;;;;;;6153491;23;20456;-93
2023/09/25 08:33:11;;;;;;;2.35;0.70;;;16.60;98.60;;;;;;6153213;23;20373;-93
2023/09/25 08:35:36;;;;;;;2.20;0.70;;;16.20;97.10;;;;;;6128676;23;20401;-94
2023/09/25 08:38:02;;;;;;;2.67;0.70;;;16.20;97.60;;;;;;6153164;23;20372;-90
2023/09/25 08:40:31;;;;;;;2.30;0.60;;;16.20;97.20;;;;;;6153251;23;20377;-91
2023/09/25 08:42:57;;;;;;;4.20;0.95;;;16.50;95.20;;;;;;6152939;23;20424;-92
2023/09/25 08:45:23;;;;;;;2.35;0.73;;;16.30;95.30;;;;;;6153177;23;20421;-90
2023/09/25 08:47:49;;;;;;;2.92;0.77;;;17.00;97.40;;;;;;6153086;23;20439;-91
2023/09/25 08:50:15;;;;;;;2.55;0.80;;;16.70;94.30;;;;;;6153065;23;20676;-92
2023/09/25 08:52:41;;;;;;;2.20;0.63;;;16.80;92.70;;;;;;6153213;23;20373;-95
2023/09/25 08:55:08;;;;;;;2.58;0.75;;;16.80;95.10;;;;;;6152893;23;20846;-91
2023/09/25 08:57:37;;;;;;;2.93;0.73;;;16.90;95.50;;;;;;6153228;23;20877;-92
2023/09/25 09:00:14;;;;;;;3.40;1.00;;;17.40;96.60;;;;;;6153200;23;20384;-94
2023/09/25 09:02:41;;;;;;;3.25;0.70;;;17.00;93.00;;;;;;6153138;23;20385;-93
2023/09/25 09:05:09;;;;;;;2.47;0.80;;;17.30;93.10;;;;;;6152552;23;20405;-93
2023/09/25 09:07:35;;;;;;;2.90;0.70;;;17.20;93.70;;;;;;6128460;23;20393;-93
2023/09/25 09:10:00;;;;;;;2.17;0.70;;;17.50;91.00;;;;;;6129085;23;20380;-92
2023/09/25 09:12:26;;;;;;;2.85;0.80;;;17.40;88.20;;;;;;6152910;23;20365;-91
2023/09/25 09:14:52;;;;;;;3.50;0.80;;;17.80;91.00;;;;;;6153549;23;20365;-93
2023/09/25 09:17:18;;;;;;;2.17;0.50;;;17.90;90.70;;;;;;6128188;23;20370;-92
2023/09/25 09:19:44;;;;;;;2.28;0.60;;;17.90;91.20;;;;;;6152821;23;20433;-91
2023/09/25 09:22:09;;;;;;;3.90;0.80;;;17.60;88.90;;;;;;6152883;23;20377;-92
2023/09/25 09:24:39;;;;;;;1.80;0.60;;;18.00;87.40;;;;;;6153186;23;20444;-92
2023/09/25 09:27:09;;;;;;;2.05;0.90;;;18.40;88.00;;;;;;6128528;23;20539;-93
2023/09/25 09:29:39;;;;;;;2.42;0.70;;;17.90;83.20;;;;;;6127864;23;20932;-93
2023/09/25 09:32:06;;;;;;;2.93;0.70;;;18.10;84.20;;;;;;6128280;23;20456;-93
2023/09/25 09:34:32;;;;;;;3.90;0.90;;;18.20;79.60;;;;;;6152824;23;20425;-93
2023/09/25 09:36:59;;;;;;;2.17;0.73;;;18.10;75.70;;;;;;6153150;23;20362;-93
2023/09/25 09:39:34;;;;;;;2.85;0.70;;;18.20;78.80;;;;;;6152907;23;20369;-93
2023/09/25 09:42:08;;;;;;;2.42;0.82;;;18.60;84.00;;;;;;6152942;23;20405;-93
2023/09/25 09:44:35;;;;;;;2.92;0.85;;;18.40;92.50;;;;;;6152536;23;20747;-94
2023/09/25 09:47:04;;;;;;;3.38;1.00;;;18.50;84.20;;;;;;6152311;23;20405;-93
2023/09/25 09:49:34;;;;;;;3.10;1.15;;;18.60;82.70;;;;;;6151035;23;20372;-90
2023/09/25 09:52:02;;;;;;;3.03;0.85;;;19.50;80.50;;;;;;6127933;23;20701;-90
2023/09/25 09:54:36;;;;;;;2.15;0.70;;;19.20;80.00;;;;;;6127938;23;20396;-94
2023/09/25 09:57:02;;;;;;;2.95;1.00;;;19.30;75.20;;;;;;6151622;23;20373;-90
2023/09/25 09:59:28;;;;;;;3.40;1.00;;;19.00;77.10;;;;;;6152779;23;20372;-89
2023/09/25 10:01:56;;;;;;;3.50;0.90;;;19.50;73.90;;;;;;6178179;23;20846;-90
2023/09/25 10:04:23;;;;;;;2.42;0.70;;;19.30;80.60;;;;;;6152200;23;20405;-90
2023/09/25 10:06:51;;;;;;;2.50;1.13;;;20.00;77.70;;;;;;6153190;23;20393;-94
2023/09/25 10:09:18;;;;;;;2.53;0.80;;;19.70;80.30;;;;;;6152650;23;20366;-88
2023/09/25 10:11:48;;;;;;;3.75;1.08;;;19.80;76.80;;;;;;6152194;23;20409;-90
2023/09/25 10:14:20;;;;;;;2.33;0.80;;;20.40;77.00;;;;;;6152164;23;20380;-90
2023/09/25 10:17:05;;;;;;;2.17;0.90;;;20.10;67.50;;;;;;6152210;23;20389;-90
2023/09/25 10:19:47;;;;;;;2.60;0.80;;;20.00;72.70;;;;;;6152061;23;20385;-91
2023/09/25 10:22:16;;;;;;;2.67;0.80;;;20.20;71.90;;;;;;6151789;23;20405;-91
2023/09/25 10:24:43;;;;;;;2.63;0.83;;;20.70;70.30;;;;;;6151900;23;20710;-90
2023/09/25 10:27:15;;;;;;;3.05;0.80;;;20.50;67.80;;;;;;6151567;23;20396;-93
2023/09/25 10:30:07;;;;;;;2.67;0.90;;;20.80;72.90;;;;;;6152893;23;20377;-91
2023/09/25 10:32:37;;;;;;;2.33;0.90;;;21.00;66.60;;;;;;6178639;23;20370;-90
2023/09/25 10:35:40;;;;;;;2.65;0.80;;;20.80;66.60;;;;;;6178230;23;20365;-89
2023/09/25 10:38:10;;;;;;;3.63;0.95;;;20.90;65.50;;;;;;6152123;23;20412;-92
2023/09/25 10:40:37;;;;;;;3.53;1.10;;;21.10;66.70;;;;;;6151833;23;20949;-91
2023/09/25 10:43:03;;;;;;;2.67;1.23;;;21.30;64.60;;;;;;6151752;23;20491;-95
2023/09/25 10:45:34;;;;;;;4.10;1.17;;;21.50;68.70;;;;;;6127654;23;20369;-91
2023/09/25 10:48:00;;;;;;;3.42;1.05;;;21.30;63.80;;;;;;6151530;23;20401;-94
2023/09/25 10:50:25;;;;;;;3.30;0.90;;;21.40;64.20;;;;;;6127757;23;20370;-92
2023/09/25 10:52:51;;;;;;;3.90;1.40;;;21.30;60.70;;;;;;6152144;23;20378;-93
2023/09/25 10:55:16;;;;;;;2.53;0.95;;;21.30;62.90;;;;;;6151975;23;20448;-90
2023/09/25 10:57:42;;;;;;;2.72;1.02;;;21.50;63.80;;;;;;6151700;23;20481;-90
2023/09/25 11:00:11;;;;;;;1.90;0.83;;;21.60;65.70;;;;;;6177578;23;20839;-91
2023/09/25 11:02:37;;;;;;;3.03;0.85;;;21.50;60.40;;;;;;6151601;23;20381;-91
2023/09/25 11:05:03;;;;;;;3.22;1.00;;;21.40;63.70;;;;;;6150759;23;20698;-89
2023/09/25 11:07:29;;;;;;;2.00;0.88;;;21.60;61.90;;;;;;6150723;23;21083;-90
2023/09/25 11:09:58;;;;;;;2.47;0.80;;;21.70;63.60;;;;;;6151332;23;20373;-88
2023/09/25 11:12:24;;;;;;;2.65;1.02;;;21.90;64.80;;;;;;6127471;23;20468;-90
2023/09/25 11:14:49;;;;;;;2.05;0.80;;;22.00;63.30;;;;;;6152138;23;20369;-92
2023/09/25 11:17:15;;;;;;;4.23;0.90;;;22.20;65.40;;;;;;6152162;23;20460;-92
2023/09/25 11:19:45;;;;;;;2.97;0.98;;;22.20;66.70;;;;;;6151341;23;20377;-90
2023/09/25 11:22:11;;;;;;;3.28;0.90;;;22.20;63.30;;;;;;6150538;23;20789;-88
2023/09/25 11:24:37;;;;;;;2.78;0.73;;;22.40;65.50;;;;;;6151911;23;20404;-89
2023/09/25 11:27:09;;;;;;;2.95;0.88;;;22.80;65.60;;;;;;6126481;23;20413;-92
2023/09/25 11:29:37;;;;;;;3.22;0.90;;;23.00;63.40;;;;;;6126941;23;20377;-89
2023/09/25 11:32:04;;;;;;;3.42;1.30;;;23.10;63.20;;;;;;6150977;23;20369;-89
2023/09/25 11:34:30;;;;;;;1.70;0.90;;;23.10;60.20;;;;;;6151091;23;20377;-88
2023/09/25 11:36:58;;;;;;;2.58;0.90;;;23.20;59.80;;;;;;6150698;23;21181;-90
2023/09/25 11:39:25;;;;;;;2.45;0.82;;;22.80;58.20;;;;;;6151017;23;20384;-90
2023/09/25 11:41:51;;;;;;;2.78;0.93;;;22.80;63.00;;;;;;6151340;23;20408;-91
2023/09/25 11:44:17;;;;;;;2.90;0.93;;;22.90;61.70;;;;;;6151519;23;20377;-90
2023/09/25 11:46:43;;;;;;;3.17;0.80;;;22.70;61.10;;;;;;6178107;23;20382;-91
2023/09/25 11:49:08;;;;;;;2.43;0.93;;;22.70;60.50;;;;;;6150986;23;20380;-91
2023/09/25 11:51:34;;;;;;;2.63;0.90;;;22.90;60.60;;;;;;6150611;23;20405;-92
2023/09/25 11:54:00;;;;;;;2.40;0.77;;;22.90;59.20;;;;;;6126740;23;20372;-89
2023/09/25 11:56:25;;;;;;;3.17;1.00;;;22.80;62.10;;;;;;6177042;23;20865;-89
2023/09/25 11:58:51;;;;;;;2.60;0.80;;;22.80;60.40;;;;;;6150280;23;20450;-89
2023/09/25 12:01:17;;;;;;;4.00;1.00;;;22.90;62.20;;;;;;6125619;23;20375;-89
2023/09/25 12:03:42;;;;;;;3.07;0.93;;;22.80;58.50;;;;;;6150110;23;20381;-92
2023/09/25 12:06:08;;;;;;;2.70;0.90;;;22.70;60.80;;;;;;6150319;23;20705;-90
2023/09/25 12:08:34;;;;;;;2.70;0.98;;;22.80;64.30;;;;;;6126020;23;20888;-89
2023/09/25 12:11:00;;;;;;;3.72;1.10;;;22.70;63.20;;;;;;6150185;23;20750;-90
2023/09/25 12:13:26;;;;;;;3.67;1.10;;;22.80;61.90;;;;;;6150281;23;20508;-90
2023/09/25 12:15:51;;;;;;;2.90;1.03;;;22.80;61.00;;;;;;6149689;23;20783;-90
2023/09/25 12:18:17;;;;;;;4.32;1.20;;;22.90;58.80;;;;;;6149925;23;20378;-88
2023/09/25 12:20:43;;;;;;;2.90;1.10;;;22.90;61.90;;;;;;6150132;23;20377;-90
2023/09/25 12:23:09;;;;;;;3.40;1.20;;;22.80;61.10;;;;;;6125394;23;20369;-90
2023/09/25 12:25:35;;;;;;;2.38;0.80;;;22.80;62.80;;;;;;6125542;23;20842;-90
2023/09/25 12:28:02;;;;;;;3.22;1.10;;;23.00;63.30;;;;;;6149381;23;20419;-88
2023/09/25 12:30:28;;;;;;;3.50;1.20;;;23.40;64.90;;;;;;6150108;23;20881;-90
2023/09/25 12:32:53;;;;;;;4.05;1.00;;;23.90;62.60;;;;;;6150662;23;20381;-90
2023/09/25 12:35:20;;;;;;;3.27;1.10;;;24.60;60.10;;;;;;6152214;23;20422;-95
2023/09/25 12:37:47;;;;;;;3.33;1.20;;;24.90;56.30;;;;;;6152636;23;20372;-91
2023/09/25 12:40:15;;;;;;;3.92;1.33;;;25.20;54.40;;;;;;6151547;23;20424;-91
2023/09/25 12:42:42;;;;;;;3.63;1.30;;;25.40;54.90;;;;;;6151781;23;20710;-90
2023/09/25 12:45:08;;;;;;;3.47;1.23;;;25.80;52.30;;;;;;6127513;23;20459;-91